Time;durP1;ratioP1;P1;durP2;ratioP2;P2;SDS_P1;SDS_P2;PMS_P1;PMS_P2;Temp;Humidity;BMP_temperature;BMP_pressure;BME280_temperature;BME280_humidity;BME280_pressure;Samples;Min_cycle;Max_cycle;Signal;HPM_P1;HPM_P2
2024/04/26 00:00:47;;;;;;;14.50;8.05;;;7.60;99.90;;;;;;5454886;26;20462;-37
2024/04/26 00:03:12;;;;;;;14.80;7.72;;;7.60;99.90;;;;;;5453410;26;20021;-37
2024/04/26 00:05:38;;;;;;;15.50;7.95;;;7.60;99.90;;;;;;5471043;26;19998;-37
2024/04/26 00:08:04;;;;;;;14.93;7.40;;;7.60;99.90;;;;;;5489949;26;20347;-37
2024/04/26 00:10:30;;;;;;;14.23;7.80;;;7.60;99.90;;;;;;5489658;26;19999;-37
2024/04/26 00:12:55;;;;;;;20.67;7.78;;;7.60;99.90;;;;;;5487991;26;20431;-36
2024/04/26 00:15:21;;;;;;;15.18;8.15;;;7.60;99.90;;;;;;5489680;26;19994;-38
2024/04/26 00:17:47;;;;;;;16.77;7.45;;;7.50;99.90;;;;;;5487824;26;19999;-38
2024/04/26 00:20:12;;;;;;;13.10;7.28;;;7.50;99.90;;;;;;5489662;26;20354;-36
2024/04/26 00:22:38;;;;;;;16.88;7.03;;;7.60;99.90;;;;;;5489912;26;20042;-37
2024/04/26 00:25:04;;;;;;;15.50;7.35;;;7.60;99.90;;;;;;5489479;26;20001;-36
2024/04/26 00:27:30;;;;;;;17.05;7.25;;;7.50;99.90;;;;;;5489472;26;20013;-37
2024/04/26 00:29:55;;;;;;;14.80;8.55;;;7.50;99.90;;;;;;5489493;26;19994;-36
2024/04/26 00:32:21;;;;;;;15.73;7.10;;;7.50;99.90;;;;;;5489416;26;20009;-36
2024/04/26 00:34:47;;;;;;;14.30;7.78;;;7.50;99.90;;;;;;5487906;26;20002;-36
2024/04/26 00:37:12;;;;;;;17.02;8.00;;;7.40;99.90;;;;;;5489468;26;20078;-36
2024/04/26 00:39:39;;;;;;;14.57;7.53;;;7.40;99.90;;;;;;5488866;26;20455;-37
2024/04/26 00:42:05;;;;;;;14.07;7.53;;;7.40;99.90;;;;;;5489584;26;20339;-53
2024/04/26 00:44:31;;;;;;;12.05;6.95;;;7.40;99.90;;;;;;5489291;26;20347;-52
2024/04/26 00:46:58;;;;;;;21.67;6.43;;;7.40;99.90;;;;;;5489215;26;19998;-55
2024/04/26 00:49:24;;;;;;;19.77;6.18;;;7.40;99.90;;;;;;5487462;26;20371;-50
2024/04/26 00:51:50;;;;;;;11.70;6.00;;;7.30;99.90;;;;;;5455912;26;19995;-47
2024/04/26 00:54:22;;;;;;;15.02;7.25;;;7.30;99.90;;;;;;5452755;26;20014;-52
2024/04/26 00:56:50;;;;;;;14.15;7.03;;;7.30;99.90;;;;;;5452755;26;19999;-51
2024/04/26 00:59:16;;;;;;;23.10;6.43;;;7.20;99.90;;;;;;5452655;26;20340;-51
2024/04/26 01:01:42;;;;;;;13.05;5.82;;;7.30;99.90;;;;;;5452666;26;20341;-52
2024/04/26 01:04:08;;;;;;;9.85;5.95;;;7.30;99.90;;;;;;5475063;26;20039;-53
2024/04/26 01:06:34;;;;;;;15.57;7.28;;;7.30;99.90;;;;;;5488614;26;20365;-53
2024/04/26 01:09:00;;;;;;;12.73;6.82;;;7.30;99.90;;;;;;5486853;26;19998;-51
2024/04/26 01:11:26;;;;;;;15.57;6.85;;;7.30;99.90;;;;;;5488895;26;20455;-53
2024/04/26 01:13:52;;;;;;;13.98;6.93;;;7.30;99.90;;;;;;5488902;26;20482;-52
2024/04/26 01:16:18;;;;;;;13.02;6.72;;;7.30;99.90;;;;;;5480656;26;20014;-53
2024/04/26 01:18:43;;;;;;;13.88;7.30;;;7.30;99.90;;;;;;5452325;26;19995;-52
2024/04/26 01:21:10;;;;;;;11.32;6.50;;;7.30;99.90;;;;;;5450581;26;19995;-52
2024/04/26 01:23:36;;;;;;;14.88;6.68;;;7.20;99.90;;;;;;5452383;26;19999;-53
2024/04/26 01:26:03;;;;;;;15.20;7.93;;;7.30;99.90;;;;;;5451480;26;19995;-52
2024/04/26 01:28:30;;;;;;;13.40;7.10;;;7.30;99.90;;;;;;5452718;26;20023;-51
2024/04/26 01:30:56;;;;;;;16.97;7.37;;;7.30;99.90;;;;;;5454109;26;20074;-53
2024/04/26 01:33:22;;;;;;;13.27;6.97;;;7.30;99.90;;;;;;5452178;26;20011;-53
2024/04/26 01:35:47;;;;;;;14.27;8.00;;;7.30;99.90;;;;;;5452183;26;20508;-53
2024/04/26 01:38:13;;;;;;;15.77;8.18;;;7.30;99.90;;;;;;5452129;26;19995;-53
2024/04/26 01:40:39;;;;;;;18.80;7.78;;;7.30;99.90;;;;;;5451792;26;20014;-53
2024/04/26 01:43:05;;;;;;;16.48;7.85;;;7.30;99.90;;;;;;5486368;26;19994;-53
2024/04/26 01:45:30;;;;;;;15.95;8.70;;;7.30;99.90;;;;;;5488337;26;20446;-53
2024/04/26 01:47:56;;;;;;;19.45;9.10;;;7.40;99.90;;;;;;5487758;26;20074;-53
2024/04/26 01:50:22;;;;;;;18.40;8.23;;;7.30;99.90;;;;;;5472749;26;20070;-51
2024/04/26 01:52:49;;;;;;;16.98;8.48;;;7.30;99.90;;;;;;5451836;26;20447;-50
2024/04/26 01:55:15;;;;;;;18.55;8.98;;;7.30;99.90;;;;;;5471996;26;20250;-53
2024/04/26 01:57:41;;;;;;;19.83;9.10;;;7.30;99.90;;;;;;5452276;26;20455;-51
2024/04/26 02:00:09;;;;;;;20.35;8.52;;;7.20;99.90;;;;;;5466104;26;20006;-36
2024/04/26 02:02:35;;;;;;;23.77;9.40;;;7.30;99.90;;;;;;5455465;26;19999;-37
2024/04/26 02:05:01;;;;;;;21.75;9.52;;;7.30;99.90;;;;;;5455107;26;20332;-36
2024/04/26 02:07:27;;;;;;;24.67;8.85;;;7.30;99.90;;;;;;5455383;26;20092;-37
2024/04/26 02:09:52;;;;;;;24.55;9.23;;;7.20;99.90;;;;;;5453284;26;20491;-37
2024/04/26 02:12:18;;;;;;;16.10;8.13;;;7.30;99.90;;;;;;5476587;26;19998;-36
2024/04/26 02:14:44;;;;;;;15.57;9.38;;;7.30;99.90;;;;;;5490282;26;19994;-38
2024/04/26 02:17:11;;;;;;;17.20;8.05;;;7.30;99.90;;;;;;5455049;26;20009;-37
2024/04/26 02:19:37;;;;;;;14.05;6.95;;;7.30;99.90;;;;;;5454976;26;20336;-36
2024/04/26 02:22:04;;;;;;;16.60;8.60;;;7.30;99.90;;;;;;5455158;26;20009;-37
2024/04/26 02:24:29;;;;;;;19.85;8.75;;;7.30;99.90;;;;;;5453433;26;20484;-37
2024/04/26 02:26:55;;;;;;;18.48;8.80;;;7.30;99.90;;;;;;5454972;26;20068;-36
2024/04/26 02:29:21;;;;;;;16.23;8.40;;;7.30;99.90;;;;;;5453161;26;19999;-36
2024/04/26 02:31:47;;;;;;;21.08;7.97;;;7.30;99.90;;;;;;5456124;26;20002;-36
2024/04/26 02:34:12;;;;;;;16.40;8.70;;;7.40;99.90;;;;;;5491266;26;20009;-42
2024/04/26 02:36:38;;;;;;;19.35;9.35;;;7.40;99.90;;;;;;5491458;26;19994;-37
2024/04/26 02:39:05;;;;;;;22.90;9.15;;;7.40;99.90;;;;;;5491389;26;19994;-38
2024/04/26 02:41:31;;;;;;;22.77;8.32;;;7.30;99.90;;;;;;5491831;26;20071;-37
2024/04/26 02:43:56;;;;;;;15.77;9.07;;;7.30;99.90;;;;;;5491337;26;20125;-37
2024/04/26 02:46:22;;;;;;;24.20;9.10;;;7.40;99.90;;;;;;5489589;26;20009;-37
2024/04/26 02:48:47;;;;;;;16.40;8.38;;;7.40;99.90;;;;;;5470690;26;20503;-38
2024/04/26 02:51:13;;;;;;;19.08;8.82;;;7.30;99.90;;;;;;5454470;26;19999;-37
2024/04/26 02:53:40;;;;;;;17.05;8.30;;;7.30;99.90;;;;;;5452625;26;20440;-37
2024/04/26 02:56:06;;;;;;;18.58;7.82;;;7.30;99.90;;;;;;5454372;26;20440;-37
2024/04/26 02:58:32;;;;;;;17.15;8.05;;;7.30;99.90;;;;;;5454477;26;20327;-37
2024/04/26 03:00:58;;;;;;;14.98;7.13;;;7.30;99.90;;;;;;5454688;26;20007;-37
2024/04/26 03:03:24;;;;;;;20.75;7.80;;;7.30;99.90;;;;;;5454699;26;19999;-37
2024/04/26 03:05:49;;;;;;;14.25;7.25;;;7.40;99.90;;;;;;5455480;26;20011;-37
2024/04/26 03:08:15;;;;;;;18.38;7.68;;;7.30;99.90;;;;;;5454170;26;19995;-37
2024/04/26 03:10:41;;;;;;;15.38;7.45;;;7.30;99.90;;;;;;5452417;26;19995;-37
2024/04/26 03:13:07;;;;;;;13.10;7.47;;;7.30;99.90;;;;;;5452995;26;19995;-37
2024/04/26 03:15:33;;;;;;;15.70;7.20;;;7.30;99.90;;;;;;5454291;26;20380;-37
2024/04/26 03:17:59;;;;;;;13.07;6.68;;;7.30;99.90;;;;;;5479971;26;20009;-38
2024/04/26 03:20:26;;;;;;;20.17;8.60;;;7.30;99.90;;;;;;5490400;26;20082;-40
2024/04/26 03:22:53;;;;;;;16.65;7.60;;;7.30;99.90;;;;;;5453932;26;20468;-38
2024/04/26 03:25:18;;;;;;;16.52;6.68;;;7.30;99.90;;;;;;5454081;26;20460;-37
2024/04/26 03:27:44;;;;;;;12.73;7.32;;;7.30;99.90;;;;;;5471737;26;20006;-38
2024/04/26 03:30:10;;;;;;;15.27;6.97;;;7.30;99.90;;;;;;5454078;26;19999;-38
2024/04/26 03:32:35;;;;;;;14.90;6.97;;;7.30;99.90;;;;;;5471705;26;20354;-38
2024/04/26 03:35:01;;;;;;;15.63;7.13;;;7.30;99.90;;;;;;5468378;26;19999;-38
2024/04/26 03:37:27;;;;;;;10.98;5.78;;;7.30;99.90;;;;;;5453889;26;20440;-38
2024/04/26 03:39:52;;;;;;;11.85;6.20;;;7.30;99.90;;;;;;5453939;26;19999;-39
2024/04/26 03:42:18;;;;;;;16.67;7.30;;;7.20;99.90;;;;;;5453732;26;20006;-37
2024/04/26 03:44:44;;;;;;;18.15;6.53;;;7.20;99.90;;;;;;5453866;26;20332;-39
2024/04/26 03:47:09;;;;;;;20.80;7.72;;;7.30;99.90;;;;;;5457701;26;20007;-37
2024/04/26 03:49:35;;;;;;;13.20;6.55;;;7.20;99.90;;;;;;5490027;26;20324;-37
2024/04/26 03:52:01;;;;;;;12.80;6.43;;;7.30;99.90;;;;;;5490008;26;20010;-39
2024/04/26 03:54:26;;;;;;;15.57;6.55;;;7.30;99.90;;;;;;5481924;26;20007;-37
2024/04/26 03:56:52;;;;;;;13.02;6.75;;;7.30;99.90;;;;;;5453228;26;20014;-38
2024/04/26 03:59:18;;;;;;;14.85;5.82;;;7.30;99.90;;;;;;5453516;26;19999;-37
2024/04/26 04:01:43;;;;;;;20.05;7.15;;;7.20;99.90;;;;;;5453573;26;19995;-37
2024/04/26 04:04:09;;;;;;;16.05;6.38;;;7.20;99.90;;;;;;5484293;26;20002;-37
2024/04/26 04:06:34;;;;;;;10.50;5.97;;;7.20;99.90;;;;;;5490163;26;20022;-37
2024/04/26 04:09:00;;;;;;;15.43;6.53;;;7.20;99.90;;;;;;5457372;26;19999;-38
2024/04/26 04:11:26;;;;;;;13.15;6.30;;;7.20;99.90;;;;;;5453241;26;20010;-39
2024/04/26 04:13:51;;;;;;;20.83;7.70;;;7.20;99.90;;;;;;5453561;26;19994;-52
2024/04/26 04:16:17;;;;;;;19.95;7.55;;;7.20;99.90;;;;;;5461345;26;19994;-52
2024/04/26 04:18:42;;;;;;;17.27;7.63;;;7.20;99.90;;;;;;5460679;26;20030;-52
2024/04/26 04:21:08;;;;;;;13.07;7.00;;;7.20;99.90;;;;;;5453271;26;20014;-54
2024/04/26 04:23:34;;;;;;;13.95;7.18;;;7.20;99.90;;;;;;5452771;26;20064;-53
2024/04/26 04:25:59;;;;;;;17.17;6.65;;;7.20;99.90;;;;;;5453152;26;19999;-57
2024/04/26 04:28:26;;;;;;;14.15;6.63;;;7.20;99.90;;;;;;5453126;26;19995;-53
2024/04/26 04:30:52;;;;;;;11.97;6.93;;;7.20;99.90;;;;;;5453221;26;20010;-52
2024/04/26 04:33:19;;;;;;;13.65;6.85;;;7.20;99.90;;;;;;5470624;26;20034;-53
2024/04/26 04:35:45;;;;;;;10.85;5.55;;;7.20;99.90;;;;;;5463405;26;19999;-53
2024/04/26 04:38:11;;;;;;;14.80;7.18;;;7.20;99.90;;;;;;5453109;26;20343;-52
2024/04/26 04:40:39;;;;;;;16.77;7.15;;;7.20;99.90;;;;;;5453355;26;20006;-53
2024/04/26 04:43:07;;;;;;;14.77;7.10;;;7.20;99.90;;;;;;5452108;26;20444;-51
2024/04/26 04:45:32;;;;;;;12.82;6.53;;;7.20;99.90;;;;;;5453065;26;20080;-53
2024/04/26 04:47:58;;;;;;;13.57;6.63;;;7.20;99.90;;;;;;5454737;26;19999;-51
2024/04/26 04:50:24;;;;;;;16.77;6.90;;;7.20;99.90;;;;;;5457655;26;20516;-53
2024/04/26 04:52:49;;;;;;;14.80;6.88;;;7.30;99.90;;;;;;5487685;26;19998;-54
2024/04/26 04:55:15;;;;;;;12.75;6.60;;;7.30;99.90;;;;;;5490459;26;19994;-53
2024/04/26 04:57:40;;;;;;;16.77;6.85;;;7.20;99.90;;;;;;5464274;26;20350;-51
2024/04/26 05:00:06;;;;;;;14.48;6.28;;;7.30;99.90;;;;;;5453032;26;19999;-53
2024/04/26 05:02:32;;;;;;;13.20;6.50;;;7.30;99.90;;;;;;5455517;26;20010;-54
2024/04/26 05:04:58;;;;;;;14.90;6.20;;;7.30;99.90;;;;;;5488953;26;19994;-54
2024/04/26 05:07:23;;;;;;;16.10;5.90;;;7.30;99.90;;;;;;5489146;26;20455;-54
2024/04/26 05:09:49;;;;;;;9.18;4.93;;;7.30;99.90;;;;;;5488812;26;19998;-53
2024/04/26 05:12:14;;;;;;;10.65;5.97;;;7.40;99.90;;;;;;5488446;26;20335;-53
2024/04/26 05:14:41;;;;;;;14.95;6.40;;;7.40;99.90;;;;;;5452408;26;20348;-52
2024/04/26 05:17:07;;;;;;;14.88;6.50;;;7.40;99.90;;;;;;5452672;26;19999;-53
2024/04/26 05:19:33;;;;;;;14.95;7.15;;;7.40;99.90;;;;;;5481810;26;19994;-53
2024/04/26 05:21:58;;;;;;;12.52;5.90;;;7.40;99.90;;;;;;5517723;26;19998;-54
2024/04/26 05:24:25;;;;;;;12.02;5.70;;;7.50;99.90;;;;;;5488453;26;20327;-39
2024/04/26 05:26:53;;;;;;;11.88;6.28;;;7.50;99.90;;;;;;5452461;26;20006;-42
2024/04/26 05:29:19;;;;;;;13.88;6.05;;;7.50;99.90;;;;;;5452311;26;20505;-39
2024/04/26 05:31:45;;;;;;;16.05;6.10;;;7.50;99.90;;;;;;5452124;26;19998;-39
2024/04/26 05:34:11;;;;;;;15.05;6.18;;;7.50;99.90;;;;;;5453812;26;20452;-39
2024/04/26 05:36:37;;;;;;;11.73;6.28;;;7.50;99.90;;;;;;5451015;26;20423;-39
2024/04/26 05:39:03;;;;;;;13.38;6.38;;;7.50;99.90;;;;;;5452070;26;19995;-38
2024/04/26 05:41:28;;;;;;;14.60;6.18;;;7.50;99.90;;;;;;5486000;26;19994;-38
2024/04/26 05:43:54;;;;;;;10.88;6.30;;;7.60;99.90;;;;;;5488328;26;20002;-40
2024/04/26 05:46:20;;;;;;;10.35;4.97;;;7.60;99.90;;;;;;5488622;26;20005;-40
2024/04/26 05:48:45;;;;;;;15.60;6.90;;;7.60;99.90;;;;;;5485243;26;20445;-38
2024/04/26 05:51:13;;;;;;;10.52;5.72;;;7.60;99.90;;;;;;5471470;26;20064;-38
2024/04/26 05:53:43;;;;;;;12.23;6.00;;;7.70;99.90;;;;;;5451887;26;19995;-38
2024/04/26 05:56:12;;;;;;;15.48;5.40;;;7.70;99.90;;;;;;5451798;26;20065;-40
2024/04/26 05:58:38;;;;;;;11.75;5.43;;;7.70;99.90;;;;;;5451801;26;20448;-38
2024/04/26 06:01:07;;;;;;;11.70;5.43;;;7.70;99.90;;;;;;5451811;26;20455;-39
2024/04/26 06:03:33;;;;;;;15.40;6.75;;;7.70;99.90;;;;;;5454376;26;19999;-39
2024/04/26 06:05:58;;;;;;;16.48;6.28;;;7.70;99.90;;;;;;5488024;26;20079;-40
2024/04/26 06:08:24;;;;;;;12.48;6.32;;;7.80;99.90;;;;;;5488096;26;20006;-40
2024/04/26 06:10:50;;;;;;;11.10;5.30;;;7.80;99.90;;;;;;5487659;26;20013;-38
2024/04/26 06:13:15;;;;;;;8.05;5.80;;;7.90;99.90;;;;;;5483016;26;19998;-39
2024/04/26 06:15:41;;;;;;;13.43;7.15;;;7.90;99.90;;;;;;5487804;26;19994;-39
2024/04/26 06:18:06;;;;;;;14.23;5.78;;;8.00;99.90;;;;;;5484743;26;19999;-39
2024/04/26 06:20:32;;;;;;;9.95;4.65;;;8.00;99.90;;;;;;5468551;26;19998;-41
2024/04/26 06:22:58;;;;;;;10.57;4.93;;;8.00;99.90;;;;;;5451342;26;20010;-39
2024/04/26 06:25:25;;;;;;;15.50;5.53;;;8.10;99.90;;;;;;5451697;26;19999;-38
2024/04/26 06:27:52;;;;;;;10.68;5.53;;;8.10;99.90;;;;;;5451179;26;20460;-42
2024/04/26 06:30:18;;;;;;;8.70;5.60;;;8.10;99.90;;;;;;5463505;26;20467;-39
2024/04/26 06:32:43;;;;;;;11.18;5.47;;;8.20;99.90;;;;;;5464781;26;20014;-38
2024/04/26 06:35:09;;;;;;;9.85;4.78;;;8.30;99.90;;;;;;5487558;26;19998;-41
2024/04/26 06:37:35;;;;;;;8.18;4.85;;;8.40;99.90;;;;;;5487389;26;20320;-39
2024/04/26 06:40:01;;;;;;;8.75;4.72;;;8.50;99.90;;;;;;5475965;26;20492;-39
2024/04/26 06:42:26;;;;;;;14.48;5.57;;;8.50;99.90;;;;;;5460675;26;20312;-39
2024/04/26 06:44:52;;;;;;;7.57;4.25;;;8.50;99.90;;;;;;5450791;26;20049;-40
2024/04/26 06:47:18;;;;;;;8.75;3.75;;;8.60;99.90;;;;;;5455902;26;20002;-39
2024/04/26 06:49:44;;;;;;;9.73;3.85;;;8.70;99.90;;;;;;5490720;26;20010;-41
2024/04/26 06:52:10;;;;;;;8.23;4.93;;;8.80;99.90;;;;;;5459347;26;20455;-40
2024/04/26 06:54:36;;;;;;;8.70;4.18;;;8.90;99.90;;;;;;5454386;26;20046;-40
2024/04/26 06:57:02;;;;;;;8.32;4.15;;;8.90;99.90;;;;;;5454470;26;20431;-47
2024/04/26 06:59:28;;;;;;;7.40;3.70;;;9.10;99.90;;;;;;5454851;26;20512;-39
2024/04/26 07:01:56;;;;;;;8.25;3.38;;;9.10;99.90;;;;;;5475372;26;20074;-39
2024/04/26 07:04:22;;;;;;;8.45;2.90;;;9.20;99.90;;;;;;5487838;26;20014;-43
2024/04/26 07:06:48;;;;;;;4.25;2.50;;;9.10;99.90;;;;;;5490635;26;20070;-40
2024/04/26 07:09:13;;;;;;;4.85;2.67;;;9.20;99.90;;;;;;5490601;26;20335;-41
2024/04/26 07:11:45;;;;;;;3.80;2.17;;;9.30;99.90;;;;;;5482608;26;19995;-40
2024/04/26 07:14:11;;;;;;;3.55;1.75;;;9.30;99.90;;;;;;5482513;26;20071;-39
2024/04/26 07:16:37;;;;;;;3.03;1.85;;;9.30;99.90;;;;;;5487582;26;19998;-40
2024/04/26 07:19:03;;;;;;;2.88;1.42;;;9.30;99.90;;;;;;5490498;26;20345;-42
2024/04/26 07:21:29;;;;;;;3.88;1.35;;;9.50;99.90;;;;;;5466177;26;20335;-42
2024/04/26 07:23:55;;;;;;;1.77;1.20;;;9.50;99.90;;;;;;5454228;26;19995;-43
2024/04/26 07:26:21;;;;;;;2.33;1.52;;;9.60;99.90;;;;;;5454044;26;20007;-54
2024/04/26 07:28:50;;;;;;;2.45;1.23;;;9.70;99.90;;;;;;5454516;26;20007;-54
2024/04/26 07:31:15;;;;;;;2.88;1.35;;;10.00;99.90;;;;;;5453630;26;20485;-43
2024/04/26 07:33:41;;;;;;;3.80;0.88;;;10.10;99.90;;;;;;5486290;26;19998;-45
2024/04/26 07:36:07;;;;;;;2.72;1.23;;;10.10;99.90;;;;;;5490775;26;19994;-42
2024/04/26 07:38:34;;;;;;;2.38;1.52;;;10.20;99.90;;;;;;5464976;26;19999;-41
2024/04/26 07:41:00;;;;;;;1.75;1.08;;;10.40;99.90;;;;;;5453919;26;19995;-44
2024/04/26 07:43:26;;;;;;;1.33;1.10;;;10.30;99.90;;;;;;5454129;26;20455;-46
2024/04/26 07:45:52;;;;;;;2.78;0.82;;;10.30;99.90;;;;;;5453718;26;20451;-43
2024/04/26 07:48:18;;;;;;;7.20;0.90;;;10.10;99.90;;;;;;5474891;26;20013;-51
2024/04/26 07:50:44;;;;;;;0.60;0.60;;;10.00;99.90;;;;;;5480098;26;20009;-49
2024/04/26 07:53:12;;;;;;;3.03;0.50;;;9.90;99.90;;;;;;5453526;26;19999;-49
2024/04/26 07:55:39;;;;;;;0.70;0.50;;;9.90;99.90;;;;;;5454277;26;20454;-53
2024/04/26 07:58:05;;;;;;;2.17;0.60;;;9.90;99.90;;;;;;5452727;26;20452;-53
2024/04/26 08:00:33;;;;;;;1.25;0.70;;;10.00;99.90;;;;;;5455365;26;20459;-53
2024/04/26 08:02:59;;;;;;;;;;;10.20;99.90;;;;;;5456161;26;20483;-54
2024/04/26 08:05:25;;;;;;;2.10;0.70;;;10.50;99.90;;;;;;5453518;26;19993;-53
2024/04/26 08:07:50;;;;;;;1.13;0.57;;;10.80;99.90;;;;;;5454248;26;19995;-53
2024/04/26 08:10:16;;;;;;;1.17;0.70;;;11.10;99.90;;;;;;5453216;26;19991;-53
2024/04/26 08:12:42;;;;;;;0.75;0.65;;;11.00;99.90;;;;;;5464724;26;20014;-53
2024/04/26 08:15:08;;;;;;;2.92;1.25;;;11.10;99.90;;;;;;5489714;26;20002;-53
2024/04/26 08:17:33;;;;;;;5.68;0.82;;;11.00;99.90;;;;;;5489813;26;20001;-53
2024/04/26 08:19:59;;;;;;;3.80;1.65;;;11.00;99.90;;;;;;5464477;26;20393;-52
2024/04/26 08:22:25;;;;;;;4.25;0.77;;;10.90;99.90;;;;;;5453309;26;19995;-52
2024/04/26 08:24:50;;;;;;;1.15;0.52;;;10.90;99.90;;;;;;5453142;26;19998;-54
2024/04/26 08:27:16;;;;;;;0.70;0.60;;;10.90;99.90;;;;;;5453216;26;19999;-53
2024/04/26 08:29:41;;;;;;;1.08;0.70;;;11.00;99.90;;;;;;5454205;26;19991;-52
2024/04/26 08:32:07;;;;;;;0.60;0.40;;;11.30;99.90;;;;;;5452959;26;20067;-52
2024/04/26 08:34:33;;;;;;;2.05;0.80;;;11.40;99.90;;;;;;5453158;26;19999;-50
2024/04/26 08:36:58;;;;;;;1.75;0.70;;;11.60;99.90;;;;;;5453315;26;20036;-49
2024/04/26 08:39:25;;;;;;;2.42;0.40;;;11.60;99.90;;;;;;5453521;26;20464;-51
2024/04/26 08:41:52;;;;;;;8.30;0.75;;;11.50;99.90;;;;;;5453114;26;20427;-54
2024/04/26 08:44:18;;;;;;;0.47;0.40;;;11.20;99.90;;;;;;5453111;26;20006;-59
2024/04/26 08:46:46;;;;;;;0.50;0.50;;;10.70;99.90;;;;;;5453906;26;20335;-50
2024/04/26 08:49:15;;;;;;;1.02;0.50;;;10.50;99.90;;;;;;5475457;26;19994;-53
2024/04/26 08:51:44;;;;;;;1.40;0.82;;;10.30;99.90;;;;;;5464674;26;20071;-52
2024/04/26 08:54:10;;;;;;;3.08;0.52;;;10.10;99.90;;;;;;5453041;26;20006;-52
2024/04/26 08:56:39;;;;;;;2.25;1.00;;;9.90;99.90;;;;;;5452683;26;20066;-53
2024/04/26 08:59:07;;;;;;;3.13;0.70;;;10.00;99.90;;;;;;5452950;26;19994;-49
2024/04/26 09:01:35;;;;;;;1.10;0.70;;;10.30;99.90;;;;;;5452944;26;20026;-53
2024/04/26 09:04:01;;;;;;;7.70;1.27;;;10.80;99.90;;;;;;5452774;26;19991;-53
2024/04/26 09:06:33;;;;;;;1.88;0.73;;;11.30;99.90;;;;;;5452818;26;20465;-53
2024/04/26 09:09:00;;;;;;;6.45;1.73;;;11.60;99.90;;;;;;5452935;26;20003;-43
2024/04/26 09:11:26;;;;;;;2.58;0.75;;;11.80;99.90;;;;;;5451039;26;19998;-45
2024/04/26 09:13:52;;;;;;;2.80;1.08;;;12.10;99.90;;;;;;5452737;26;19995;-41
2024/04/26 09:16:17;;;;;;;2.10;0.95;;;12.30;99.90;;;;;;5452342;26;19991;-41
2024/04/26 09:18:43;;;;;;;5.40;0.63;;;12.30;99.90;;;;;;5452222;26;20006;-42
2024/04/26 09:21:09;;;;;;;2.33;0.50;;;12.70;99.90;;;;;;5452780;26;19991;-42
2024/04/26 09:23:34;;;;;;;2.00;0.47;;;13.00;99.90;;;;;;5452637;26;20006;-43
2024/04/26 09:26:07;;;;;;;0.52;0.40;;;13.50;99.90;;;;;;5452568;26;20435;-47
2024/04/26 09:28:33;;;;;;;5.38;1.13;;;14.20;99.90;;;;;;5452439;26;20067;-48
2024/04/26 09:30:59;;;;;;;3.70;0.55;;;14.90;99.90;;;;;;5452193;26;19999;-51
2024/04/26 09:33:29;;;;;;;2.25;0.70;;;15.30;99.90;;;;;;5452359;26;19999;-43
2024/04/26 09:35:56;;;;;;;0.85;0.55;;;15.40;99.90;;;;;;5452285;26;20436;-47
2024/04/26 09:38:22;;;;;;;2.55;0.50;;;14.60;99.90;;;;;;5452003;26;19995;-43
2024/04/26 09:40:50;;;;;;;1.70;0.47;;;13.60;99.90;;;;;;5451934;26;20048;-45
2024/04/26 09:43:18;;;;;;;1.35;0.47;;;13.00;99.90;;;;;;5451947;26;20448;-44
2024/04/26 09:45:44;;;;;;;0.82;0.73;;;13.40;99.90;;;;;;5451719;26;20010;-48
2024/04/26 09:48:12;;;;;;;6.00;0.80;;;13.50;99.90;;;;;;5449787;26;20330;-48
2024/04/26 09:50:39;;;;;;;2.65;0.40;;;13.50;99.90;;;;;;5459827;26;20475;-48
2024/04/26 09:53:05;;;;;;;0.80;0.63;;;13.40;99.90;;;;;;5488018;26;20062;-50
2024/04/26 09:55:32;;;;;;;1.52;0.88;;;13.30;99.90;;;;;;5498487;26;20324;-50
2024/04/26 09:57:58;;;;;;;2.95;0.50;;;13.10;99.90;;;;;;5524932;26;20558;-50
2024/04/26 10:00:24;;;;;;;5.03;0.63;;;13.10;99.90;;;;;;5524868;26;19998;-50
2024/04/26 10:02:57;;;;;;;1.90;1.15;;;13.30;99.90;;;;;;5524725;26;20004;-49
2024/04/26 10:05:22;;;;;;;4.05;0.77;;;13.40;99.90;;;;;;5524889;26;20466;-56
2024/04/26 10:07:59;;;;;;;1.17;1.08;;;12.70;99.90;;;;;;5524636;26;20069;-56
2024/04/26 10:10:29;;;;;;;0.47;0.47;;;12.00;99.90;;;;;;5524740;26;20442;-57
2024/04/26 10:13:05;;;;;;;0.80;0.50;;;11.20;99.90;;;;;;5525045;26;19994;-56
2024/04/26 10:15:31;;;;;;;1.38;0.50;;;10.90;99.90;;;;;;5524769;26;20008;-55
2024/04/26 10:17:57;;;;;;;1.30;0.60;;;10.40;99.90;;;;;;5524469;26;20127;-53
2024/04/26 10:20:23;;;;;;;1.52;0.57;;;10.50;99.90;;;;;;5524497;26;20462;-55
2024/04/26 10:23:02;;;;;;;5.32;0.80;;;10.90;99.90;;;;;;5527252;26;20364;-57
2024/04/26 10:25:28;;;;;;;3.28;0.60;;;11.10;99.90;;;;;;5527807;26;20410;-51
2024/04/26 10:27:53;;;;;;;1.73;0.40;;;10.90;99.90;;;;;;5527904;26;20005;-56
2024/04/26 10:30:19;;;;;;;4.97;0.60;;;11.10;99.90;;;;;;5528075;26;20009;-57
2024/04/26 10:32:47;;;;;;;1.00;0.80;;;11.50;99.90;;;;;;5527774;26;19998;-58
2024/04/26 10:35:19;;;;;;;2.75;0.60;;;11.90;99.90;;;;;;5527998;26;19997;-56
2024/04/26 10:38:01;;;;;;;2.85;0.40;;;12.00;99.90;;;;;;5527873;26;20066;-57
2024/04/26 10:40:26;;;;;;;3.90;0.85;;;11.90;99.90;;;;;;5528048;26;20442;-54
2024/04/26 10:42:52;;;;;;;1.75;0.70;;;12.00;99.90;;;;;;5528138;26;19997;-54
2024/04/26 10:45:18;;;;;;;1.48;0.70;;;12.20;99.90;;;;;;5528061;26;20003;-58
2024/04/26 10:47:45;;;;;;;3.13;0.95;;;12.20;99.90;;;;;;5527861;26;20005;-56
2024/04/26 10:50:11;;;;;;;2.30;0.85;;;12.00;99.90;;;;;;5524614;26;20069;-56
2024/04/26 10:52:37;;;;;;;1.20;0.68;;;12.00;99.90;;;;;;5454545;26;19998;-56
2024/04/26 10:55:04;;;;;;;2.33;0.68;;;11.90;99.90;;;;;;5460688;26;19995;-57
2024/04/26 10:57:30;;;;;;;3.10;0.75;;;11.90;99.90;;;;;;5527285;26;19994;-57
2024/04/26 11:00:05;;;;;;;1.50;0.47;;;11.90;99.90;;;;;;5527476;26;20448;-56
2024/04/26 11:02:31;;;;;;;2.13;0.73;;;12.40;99.90;;;;;;5522259;26;19998;-56
2024/04/26 11:05:08;;;;;;;0.80;0.65;;;13.20;99.90;;;;;;5454123;26;20449;-58
2024/04/26 11:07:34;;;;;;;3.75;0.70;;;13.90;99.90;;;;;;5454109;26;20421;-55
2024/04/26 11:10:00;;;;;;;3.03;0.60;;;14.00;99.90;;;;;;5453982;26;19998;-54
2024/04/26 11:12:25;;;;;;;2.25;0.65;;;13.90;99.90;;;;;;5452279;26;20003;-57
2024/04/26 11:14:51;;;;;;;1.95;0.40;;;13.40;99.90;;;;;;5453953;26;19995;-53
2024/04/26 11:17:17;;;;;;;0.93;0.60;;;13.10;99.90;;;;;;5454252;26;19999;-54
2024/04/26 11:19:42;;;;;;;1.10;1.00;;;13.00;99.90;;;;;;5453943;26;20335;-54
2024/04/26 11:22:09;;;;;;;1.65;0.82;;;13.10;99.90;;;;;;5454052;26;20006;-58
2024/04/26 11:24:35;;;;;;;1.00;0.65;;;13.30;99.90;;;;;;5453976;26;20009;-57
2024/04/26 11:27:10;;;;;;;2.47;0.70;;;13.10;99.90;;;;;;5451896;26;20468;-54
2024/04/26 11:29:36;;;;;;;1.80;0.50;;;12.80;99.90;;;;;;5454531;26;20007;-56
2024/04/26 11:32:01;;;;;;;2.53;0.70;;;12.50;99.90;;;;;;5490237;26;20002;-56
2024/04/26 11:34:27;;;;;;;1.90;0.50;;;12.30;99.90;;;;;;5489298;26;20070;-55
2024/04/26 11:36:53;;;;;;;2.58;0.47;;;12.20;99.90;;;;;;5471564;26;20335;-55
2024/04/26 11:39:18;;;;;;;0.50;0.50;;;12.30;99.90;;;;;;5453839;26;20039;-57
2024/04/26 11:41:44;;;;;;;1.95;0.77;;;12.70;99.90;;;;;;5453655;26;20006;-55
2024/04/26 11:44:10;;;;;;;1.30;0.63;;;13.00;99.90;;;;;;5453673;26;20011;-55
2024/04/26 11:46:36;;;;;;;2.05;0.90;;;13.20;99.90;;;;;;5453347;26;20006;-57
2024/04/26 11:49:01;;;;;;;2.05;0.40;;;13.40;99.90;;;;;;5453479;26;20014;-56
2024/04/26 11:51:28;;;;;;;1.00;0.55;;;13.50;99.90;;;;;;5453211;26;19999;-57
2024/04/26 11:53:57;;;;;;;2.97;0.50;;;13.70;99.90;;;;;;5471854;26;20483;-57
2024/04/26 11:56:25;;;;;;;3.05;0.60;;;14.00;99.90;;;;;;5466466;26;20455;-57
2024/04/26 11:58:51;;;;;;;4.47;0.73;;;14.20;99.90;;;;;;5469936;26;20002;-53
2024/04/26 12:01:16;;;;;;;1.30;0.68;;;14.20;99.90;;;;;;5481656;26;20010;-53
2024/04/26 12:03:42;;;;;;;0.40;0.40;;;14.00;99.90;;;;;;5489881;26;20527;-56
2024/04/26 12:06:12;;;;;;;1.58;0.35;;;13.90;99.90;;;;;;5477504;26;19995;-56
2024/04/26 12:08:37;;;;;;;0.85;0.50;;;14.10;99.90;;;;;;5453636;26;19999;-57
2024/04/26 12:11:03;;;;;;;3.33;0.65;;;14.30;99.90;;;;;;5452641;26;20011;-56
2024/04/26 12:13:29;;;;;;;0.88;0.50;;;14.00;99.90;;;;;;5452703;26;19999;-56
2024/04/26 12:15:54;;;;;;;6.50;0.45;;;14.00;99.90;;;;;;5452692;26;20440;-56
2024/04/26 12:18:20;;;;;;;2.47;0.50;;;14.10;99.90;;;;;;5453273;26;20003;-57
2024/04/26 12:20:45;;;;;;;7.53;0.73;;;14.30;99.90;;;;;;5453117;26;20328;-57
2024/04/26 12:23:11;;;;;;;0.60;0.60;;;14.30;99.90;;;;;;5453062;26;20003;-56
2024/04/26 12:25:37;;;;;;;7.50;0.95;;;14.10;99.90;;;;;;5453153;26;20516;-52
2024/04/26 12:28:07;;;;;;;3.42;1.20;;;13.30;99.90;;;;;;5453888;26;20015;-53
2024/04/26 12:30:34;;;;;;;1.75;0.60;;;13.30;99.90;;;;;;5469898;26;19998;-54
2024/04/26 12:33:00;;;;;;;1.77;0.68;;;13.70;99.90;;;;;;5489203;26;19998;-58
2024/04/26 12:35:29;;;;;;;0.50;0.38;;;14.10;99.90;;;;;;5489539;26;20447;-56
2024/04/26 12:37:54;;;;;;;3.63;0.50;;;13.80;99.90;;;;;;5489385;26;19994;-58
2024/04/26 12:40:20;;;;;;;2.97;0.60;;;13.90;99.90;;;;;;5488852;26;20379;-56
2024/04/26 12:42:45;;;;;;;0.73;0.55;;;14.20;99.90;;;;;;5489395;26;19998;-57